createdAt,value
2022-10-22T00:00:05.128Z,1006.16
2022-10-22T00:01:05.039Z,1006.19
2022-10-22T00:02:05.032Z,1006.27
2022-10-22T00:03:05.160Z,1006.37
2022-10-22T00:04:05.021Z,1006.42
2022-10-22T00:05:05.018Z,1006.49
2022-10-22T00:06:05.008Z,1006.54
2022-10-22T00:07:05.009Z,1006.51
2022-10-22T00:08:05.001Z,1006.55
2022-10-22T00:09:05.043Z,1006.55
2022-10-22T00:10:04.996Z,1006.58
2022-10-22T00:11:04.990Z,1006.57
2022-10-22T00:12:04.975Z,1006.59
2022-10-22T00:13:04.972Z,1006.60
2022-10-22T00:14:04.972Z,1006.60
2022-10-22T00:15:04.963Z,1006.62
2022-10-22T00:16:04.957Z,1006.62
2022-10-22T00:17:06.947Z,1006.61
2022-10-22T00:18:04.946Z,1006.66
2022-10-22T00:19:04.985Z,1006.64
2022-10-22T00:20:04.934Z,1006.62
2022-10-22T00:21:04.929Z,1006.63
2022-10-22T00:22:04.930Z,1006.61
2022-10-22T00:23:04.922Z,1006.60
2022-10-22T00:24:04.916Z,1006.60
2022-10-22T00:25:04.908Z,1006.58
2022-10-22T00:26:04.912Z,1006.60
2022-10-22T00:27:04.901Z,1006.59
2022-10-22T00:28:04.890Z,1006.57
2022-10-22T00:29:04.886Z,1006.56
2022-10-22T00:30:04.884Z,1006.50
2022-10-22T00:31:04.875Z,1006.47
2022-10-22T00:32:04.869Z,1006.47
2022-10-22T00:33:04.872Z,1006.46
2022-10-22T00:34:04.865Z,1006.41
2022-10-22T00:35:04.866Z,1006.39
2022-10-22T00:36:04.856Z,1006.38
2022-10-22T00:37:04.855Z,1006.36
2022-10-22T00:38:04.857Z,1006.30
2022-10-22T00:39:04.839Z,1006.37
2022-10-22T00:40:04.828Z,1006.35
2022-10-22T00:41:04.836Z,1006.37
2022-10-22T00:42:04.823Z,1006.38
2022-10-22T00:43:04.813Z,1006.32
2022-10-22T00:44:04.814Z,1006.30
2022-10-22T00:45:04.805Z,1006.31
2022-10-22T00:46:04.794Z,1006.27
2022-10-22T00:47:04.792Z,1006.29
2022-10-22T00:48:04.794Z,1006.27
2022-10-22T00:49:04.778Z,1006.25
2022-10-22T00:50:04.780Z,1006.27
2022-10-22T00:51:04.770Z,1006.22
2022-10-22T00:52:04.765Z,1006.19
2022-10-22T00:53:04.754Z,1006.23
2022-10-22T00:54:04.749Z,1006.21
2022-10-22T00:55:04.752Z,1006.23
2022-10-22T00:56:04.744Z,1006.23
2022-10-22T00:57:04.735Z,1006.27
2022-10-22T00:58:04.728Z,1006.24
2022-10-22T00:59:04.793Z,1006.29
2022-10-22T01:00:04.721Z,1006.32
2022-10-22T01:01:04.729Z,1006.40
2022-10-22T01:02:04.705Z,1006.43
2022-10-22T01:03:04.704Z,1006.47
2022-10-22T01:04:04.700Z,1006.50
2022-10-22T01:05:04.694Z,1006.45
2022-10-22T01:06:04.685Z,1006.43
2022-10-22T01:07:04.689Z,1006.44
2022-10-22T01:08:04.731Z,1006.47
2022-10-22T01:09:04.716Z,1006.50
2022-10-22T01:10:04.665Z,1006.48
2022-10-22T01:11:04.661Z,1006.44
2022-10-22T01:12:04.651Z,1006.44
2022-10-22T01:13:04.646Z,1006.43
2022-10-22T01:14:04.637Z,1006.45
2022-10-22T01:15:04.638Z,1006.49
2022-10-22T01:16:04.628Z,1006.54
2022-10-22T01:17:04.631Z,1006.63
2022-10-22T01:18:04.615Z,1006.65
2022-10-22T01:19:04.621Z,1006.70
2022-10-22T01:20:04.605Z,1006.67
2022-10-22T01:21:04.616Z,1006.67
2022-10-22T01:22:04.593Z,1006.63
2022-10-22T01:23:04.593Z,1006.56
2022-10-22T01:24:04.586Z,1006.53
2022-10-22T01:25:04.584Z,1006.53
2022-10-22T01:26:04.569Z,1006.51
2022-10-22T01:27:04.566Z,1006.58
2022-10-22T01:28:04.561Z,1006.56
2022-10-22T01:29:04.555Z,1006.51
2022-10-22T01:30:04.550Z,1006.51
2022-10-22T01:31:04.547Z,1006.48
2022-10-22T01:32:04.544Z,1006.49
2022-10-22T01:33:04.539Z,1006.47
2022-10-22T01:34:04.536Z,1006.50
2022-10-22T01:35:04.523Z,1006.48
2022-10-22T01:36:04.514Z,1006.48
2022-10-22T01:37:04.508Z,1006.47
2022-10-22T01:38:04.506Z,1006.47
2022-10-22T01:39:04.501Z,1006.45
2022-10-22T01:40:04.493Z,1006.45
2022-10-22T01:41:04.492Z,1006.46
2022-10-22T01:42:04.500Z,1006.44
2022-10-22T01:43:04.475Z,1006.48
2022-10-22T01:44:04.476Z,1006.48
2022-10-22T01:45:04.475Z,1006.46
2022-10-22T01:46:04.459Z,1006.47
2022-10-22T01:47:04.462Z,1006.50
2022-10-22T01:48:04.449Z,1006.47
2022-10-22T01:49:04.445Z,1006.47
2022-10-22T01:50:04.447Z,1006.38
2022-10-22T01:51:04.431Z,1006.37
2022-10-22T01:52:04.425Z,1006.34
2022-10-22T01:53:04.426Z,1006.35
2022-10-22T01:54:04.418Z,1006.39
2022-10-22T01:55:04.417Z,1006.36
2022-10-22T01:56:04.413Z,1006.39
2022-10-22T01:57:04.401Z,1006.41
2022-10-22T01:58:04.408Z,1006.37
2022-10-22T01:59:04.391Z,1006.38
2022-10-22T02:00:04.386Z,1006.45
2022-10-22T02:01:04.437Z,1006.47
2022-10-22T02:02:04.370Z,1006.49
2022-10-22T02:03:04.371Z,1006.49
2022-10-22T02:04:04.366Z,1006.48
2022-10-22T02:05:04.355Z,1006.46
2022-10-22T02:06:04.362Z,1006.47
2022-10-22T02:07:04.341Z,1006.47
2022-10-22T02:08:04.342Z,1006.51
2022-10-22T02:09:04.424Z,1006.53
2022-10-22T02:10:04.326Z,1006.62
2022-10-22T02:11:04.362Z,1006.68
2022-10-22T02:13:04.309Z,1006.70
2022-10-22T02:14:04.316Z,1006.71
2022-10-22T02:15:04.295Z,1006.71
2022-10-22T02:16:04.304Z,1006.69
2022-10-22T02:17:04.294Z,1006.68
2022-10-22T02:18:04.278Z,1006.68
2022-10-22T02:19:04.275Z,1006.71
2022-10-22T02:20:04.279Z,1006.71
2022-10-22T02:21:04.294Z,1006.73
2022-10-22T02:22:04.272Z,1006.69
2022-10-22T02:23:04.296Z,1006.68
2022-10-22T02:24:04.251Z,1006.64
2022-10-22T02:25:04.244Z,1006.65
2022-10-22T02:26:04.249Z,1006.60
2022-10-22T02:27:04.232Z,1006.58
2022-10-22T02:28:04.233Z,1006.55
2022-10-22T02:29:04.217Z,1006.55
2022-10-22T02:30:04.311Z,1006.57
2022-10-22T02:31:04.203Z,1006.51
2022-10-22T02:32:04.203Z,1006.57
2022-10-22T02:33:04.196Z,1006.56
2022-10-22T02:34:04.184Z,1006.55
2022-10-22T02:35:04.194Z,1006.54
2022-10-22T02:36:04.178Z,1006.56
2022-10-22T02:37:04.174Z,1006.50
2022-10-22T02:38:04.178Z,1006.51
2022-10-22T02:39:04.178Z,1006.52
2022-10-22T02:40:04.157Z,1006.51
2022-10-22T02:41:04.151Z,1006.51
2022-10-22T02:42:04.144Z,1006.48
2022-10-22T02:43:04.138Z,1006.50
2022-10-22T02:44:04.134Z,1006.53
2022-10-22T02:45:04.124Z,1006.55
2022-10-22T02:46:04.127Z,1006.52
2022-10-22T02:47:04.112Z,1006.60
2022-10-22T02:48:04.106Z,1006.61
2022-10-22T02:49:04.109Z,1006.59
2022-10-22T02:50:06.534Z,1006.62
2022-10-22T02:51:04.089Z,1006.56
2022-10-22T02:52:04.096Z,1006.61
2022-10-22T02:53:04.078Z,1006.59
2022-10-22T02:54:04.083Z,1006.59
2022-10-22T02:55:04.074Z,1006.58
2022-10-22T02:56:04.064Z,1006.60
2022-10-22T02:57:04.056Z,1006.61
2022-10-22T02:58:04.051Z,1006.60
2022-10-22T02:59:04.043Z,1006.61
2022-10-22T03:00:04.057Z,1006.64
2022-10-22T03:01:04.101Z,1006.68
2022-10-22T03:02:04.035Z,1006.67
2022-10-22T03:03:04.019Z,1006.69
2022-10-22T03:04:04.018Z,1006.70
2022-10-22T03:05:04.010Z,1006.68
2022-10-22T03:06:04.006Z,1006.69
2022-10-22T03:07:03.998Z,1006.66
2022-10-22T03:08:03.996Z,1006.67
2022-10-22T03:09:04.055Z,1006.64
2022-10-22T03:10:03.991Z,1006.63
2022-10-22T03:11:03.972Z,1006.61
2022-10-22T03:12:03.970Z,1006.58
2022-10-22T03:13:03.963Z,1006.56
2022-10-22T03:14:03.958Z,1006.53
2022-10-22T03:15:03.961Z,1006.54
2022-10-22T03:16:03.949Z,1006.55
2022-10-22T03:17:03.952Z,1006.53
2022-10-22T03:18:03.947Z,1006.51
2022-10-22T03:19:03.929Z,1006.49
2022-10-22T03:20:03.924Z,1006.46
2022-10-22T03:21:03.922Z,1006.49
2022-10-22T03:22:03.911Z,1006.52
2022-10-22T03:23:03.907Z,1006.47
2022-10-22T03:24:03.907Z,1006.44
2022-10-22T03:25:03.898Z,1006.43
2022-10-22T03:26:03.900Z,1006.43
2022-10-22T03:27:03.882Z,1006.42
2022-10-22T03:28:03.883Z,1006.42
2022-10-22T03:29:03.871Z,1006.40
2022-10-22T03:30:03.864Z,1006.39
2022-10-22T03:31:03.860Z,1006.43
2022-10-22T03:32:03.858Z,1006.43
2022-10-22T03:33:03.852Z,1006.41
2022-10-22T03:34:03.855Z,1006.42
2022-10-22T03:35:03.837Z,1006.41
2022-10-22T03:36:03.830Z,1006.46
2022-10-22T03:37:03.827Z,1006.46
2022-10-22T03:38:03.817Z,1006.45
2022-10-22T03:39:03.814Z,1006.47
2022-10-22T03:40:03.853Z,1006.48
2022-10-22T03:41:03.804Z,1006.49
2022-10-22T03:42:03.809Z,1006.49
2022-10-22T03:43:03.790Z,1006.51
2022-10-22T03:44:03.786Z,1006.48
2022-10-22T03:45:03.782Z,1006.48
2022-10-22T03:46:03.773Z,1006.46
2022-10-22T03:47:03.769Z,1006.45
2022-10-22T03:48:03.763Z,1006.48
2022-10-22T03:49:03.755Z,1006.51
2022-10-22T03:50:03.759Z,1006.54
2022-10-22T03:51:03.742Z,1006.57
2022-10-22T03:52:03.742Z,1006.56
2022-10-22T03:53:03.745Z,1006.55
2022-10-22T03:54:03.726Z,1006.61
2022-10-22T03:55:03.735Z,1006.59
2022-10-22T03:56:03.718Z,1006.61
2022-10-22T03:57:03.708Z,1006.65
2022-10-22T03:58:03.718Z,1006.63
2022-10-22T03:59:03.702Z,1006.66
2022-10-22T04:00:03.694Z,1006.70
2022-10-22T04:01:03.708Z,1006.69
2022-10-22T04:02:03.679Z,1006.68
2022-10-22T04:03:03.673Z,1006.69
2022-10-22T04:04:03.673Z,1006.69
2022-10-22T04:05:03.737Z,1006.68
2022-10-22T04:06:03.673Z,1006.72
2022-10-22T04:07:03.671Z,1006.72
2022-10-22T04:08:03.645Z,1006.75
2022-10-22T04:09:03.696Z,1006.77
2022-10-22T04:10:03.634Z,1006.78
2022-10-22T04:11:03.634Z,1006.81
2022-10-22T04:12:03.620Z,1006.79
2022-10-22T04:13:03.619Z,1006.81
2022-10-22T04:14:03.609Z,1006.83
2022-10-22T04:15:03.605Z,1006.83
2022-10-22T04:16:03.607Z,1006.85
2022-10-22T04:17:03.592Z,1006.87
2022-10-22T04:18:03.586Z,1006.91
2022-10-22T04:19:03.583Z,1006.93
2022-10-22T04:20:03.576Z,1006.90
2022-10-22T04:21:03.572Z,1006.94
2022-10-22T04:22:03.562Z,1006.95
2022-10-22T04:23:03.565Z,1006.96
2022-10-22T04:24:03.549Z,1006.96
2022-10-22T04:25:03.561Z,1006.99
2022-10-22T04:26:03.537Z,1006.98
2022-10-22T04:27:03.536Z,1006.97
2022-10-22T04:28:03.530Z,1006.96
2022-10-22T04:29:03.524Z,1006.95
2022-10-22T04:30:03.520Z,1006.97
2022-10-22T04:31:03.518Z,1006.98
2022-10-22T04:32:03.508Z,1006.95
2022-10-22T04:33:03.499Z,1006.99
2022-10-22T04:34:03.495Z,1006.99
2022-10-22T04:35:03.490Z,1006.96
2022-10-22T04:36:03.487Z,1006.98
2022-10-22T04:37:03.478Z,1006.97
2022-10-22T04:38:03.471Z,1006.94
2022-10-22T04:39:03.467Z,1006.93
2022-10-22T04:40:03.461Z,1006.94
2022-10-22T04:41:03.455Z,1006.93
2022-10-22T04:42:03.447Z,1006.95
2022-10-22T04:43:03.442Z,1006.91
2022-10-22T04:44:03.436Z,1006.91
2022-10-22T04:45:03.430Z,1006.90
2022-10-22T04:46:03.450Z,1006.87
2022-10-22T04:47:03.422Z,1006.86
2022-10-22T04:48:03.422Z,1006.82
2022-10-22T04:49:03.415Z,1006.82
2022-10-22T04:50:03.403Z,1006.83
2022-10-22T04:51:03.396Z,1006.82
2022-10-22T04:52:03.397Z,1006.79
2022-10-22T04:53:03.384Z,1006.77
2022-10-22T04:54:03.387Z,1006.77
2022-10-22T04:55:03.371Z,1006.74
2022-10-22T04:56:03.368Z,1006.73
2022-10-22T04:57:03.362Z,1006.72
2022-10-22T04:58:03.354Z,1006.71
2022-10-22T04:59:03.352Z,1006.70
2022-10-22T05:00:03.346Z,1006.74
2022-10-22T05:01:03.367Z,1006.75
2022-10-22T05:02:03.344Z,1006.77
2022-10-22T05:03:03.324Z,1006.75
2022-10-22T05:04:03.320Z,1006.76
2022-10-22T05:05:03.313Z,1006.79
2022-10-22T05:06:03.353Z,1006.78
2022-10-22T05:07:03.305Z,1006.78
2022-10-22T05:08:03.302Z,1006.79
2022-10-22T05:09:03.324Z,1006.80
2022-10-22T05:10:03.285Z,1006.80
2022-10-22T05:11:03.277Z,1006.82
2022-10-22T05:12:03.280Z,1006.81
2022-10-22T05:13:03.265Z,1006.85
2022-10-22T05:14:03.260Z,1006.86
2022-10-22T05:15:03.258Z,1006.85
2022-10-22T05:16:03.252Z,1006.85
2022-10-22T05:17:03.248Z,1006.90
2022-10-22T05:18:03.242Z,1006.91
2022-10-22T05:19:03.233Z,1006.90
2022-10-22T05:20:03.223Z,1006.93
2022-10-22T05:21:03.223Z,1006.94
2022-10-22T05:22:03.214Z,1006.92
2022-10-22T05:23:03.209Z,1006.96
2022-10-22T05:24:03.209Z,1006.94
2022-10-22T05:25:03.196Z,1006.98
2022-10-22T05:26:03.188Z,1006.99
2022-10-22T05:27:03.184Z,1007.01
2022-10-22T05:28:03.191Z,1006.97
2022-10-22T05:29:03.174Z,1006.97
2022-10-22T05:30:03.161Z,1006.97
2022-10-22T05:31:03.159Z,1007.00
2022-10-22T05:32:03.154Z,1006.99
2022-10-22T05:33:03.173Z,1006.99
2022-10-22T05:34:03.137Z,1007.00
2022-10-22T05:35:03.134Z,1006.98
2022-10-22T05:36:03.138Z,1006.96
2022-10-22T05:37:03.127Z,1006.99
2022-10-22T05:38:03.124Z,1007.00
2022-10-22T05:39:03.119Z,1007.02
2022-10-22T05:40:18.938Z,1007.02
2022-10-22T05:41:03.102Z,1007.07
2022-10-22T05:42:03.089Z,1007.05
2022-10-22T05:43:03.089Z,1007.00
2022-10-22T05:44:03.088Z,1007.03
2022-10-22T05:45:03.081Z,1007.02
2022-10-22T05:46:03.088Z,1007.00
2022-10-22T05:47:03.073Z,1006.99
2022-10-22T05:48:03.066Z,1007.04
2022-10-22T05:49:03.060Z,1007.04
2022-10-22T05:50:03.042Z,1007.04
2022-10-22T05:51:03.038Z,1007.09
2022-10-22T05:52:03.042Z,1007.10
2022-10-22T05:53:03.036Z,1007.12
2022-10-22T05:54:03.025Z,1007.12
2022-10-22T05:55:03.026Z,1007.11
2022-10-22T05:56:03.011Z,1007.14
2022-10-22T05:57:03.010Z,1007.16
2022-10-22T05:58:02.995Z,1007.12
2022-10-22T06:00:02.983Z,1007.09
2022-10-22T06:01:02.993Z,1007.08
2022-10-22T06:02:03.029Z,1007.06
2022-10-22T06:03:02.981Z,1007.04
2022-10-22T06:04:02.964Z,1007.08
2022-10-22T06:05:02.971Z,1007.09
2022-10-22T06:06:02.949Z,1007.09
2022-10-22T06:07:02.951Z,1007.13
2022-10-22T06:08:02.936Z,1007.18
2022-10-22T06:09:02.974Z,1007.20
2022-10-22T06:10:02.950Z,1007.28
2022-10-22T06:11:02.922Z,1007.27
2022-10-22T06:12:02.918Z,1007.25
2022-10-22T06:13:02.921Z,1007.27
2022-10-22T06:14:02.911Z,1007.30
2022-10-22T06:15:02.897Z,1007.27
2022-10-22T06:16:02.890Z,1007.26
2022-10-22T06:17:02.881Z,1007.28
2022-10-22T06:18:02.882Z,1007.25
2022-10-22T06:19:02.897Z,1007.26
2022-10-22T06:20:02.878Z,1007.24
2022-10-22T06:21:02.870Z,1007.27
2022-10-22T06:22:02.853Z,1007.27
2022-10-22T06:23:02.863Z,1007.25
2022-10-22T06:24:02.847Z,1007.28
2022-10-22T06:25:02.838Z,1007.27
2022-10-22T06:26:02.832Z,1007.27
2022-10-22T06:27:02.826Z,1007.32
2022-10-22T06:28:02.821Z,1007.35
2022-10-22T06:29:02.818Z,1007.35
2022-10-22T06:30:02.812Z,1007.39
2022-10-22T06:31:02.804Z,1007.38
2022-10-22T06:32:02.795Z,1007.44
2022-10-22T06:33:02.787Z,1007.44
2022-10-22T06:34:02.792Z,1007.44
2022-10-22T06:35:02.775Z,1007.47
2022-10-22T06:36:06.666Z,1007.48
2022-10-22T06:37:02.765Z,1007.51
2022-10-22T06:38:02.770Z,1007.50
2022-10-22T06:39:02.761Z,1007.52
2022-10-22T06:40:02.758Z,1007.50
2022-10-22T06:41:02.743Z,1007.51
2022-10-22T06:42:02.738Z,1007.50
2022-10-22T06:43:02.728Z,1007.51
2022-10-22T06:44:02.727Z,1007.53
2022-10-22T06:46:02.711Z,1007.51
2022-10-22T06:47:02.712Z,1007.51
2022-10-22T06:48:02.703Z,1007.53
2022-10-22T06:49:02.699Z,1007.47
2022-10-22T06:50:02.693Z,1007.49
2022-10-22T06:51:02.689Z,1007.51
2022-10-22T06:52:02.679Z,1007.52
2022-10-22T06:53:02.683Z,1007.53
2022-10-22T06:54:02.663Z,1007.51
2022-10-22T06:55:02.661Z,1007.53
2022-10-22T06:56:02.659Z,1007.51
2022-10-22T06:57:02.651Z,1007.54
2022-10-22T06:58:02.647Z,1007.54
2022-10-22T06:59:02.641Z,1007.51
2022-10-22T07:00:02.653Z,1007.54
2022-10-22T07:01:02.663Z,1007.55
2022-10-22T07:02:02.618Z,1007.56
2022-10-22T07:03:02.620Z,1007.59
2022-10-22T07:04:02.612Z,1007.64
2022-10-22T07:05:02.626Z,1007.62
2022-10-22T07:06:02.598Z,1007.63
2022-10-22T07:07:02.589Z,1007.63
2022-10-22T07:08:02.590Z,1007.67
2022-10-22T07:09:02.711Z,1007.69
2022-10-22T07:10:02.595Z,1007.73
2022-10-22T07:11:02.575Z,1007.71
2022-10-22T07:12:02.574Z,1007.73
2022-10-22T07:13:02.557Z,1007.78
2022-10-22T07:14:02.554Z,1007.75
2022-10-22T07:15:02.551Z,1007.76
2022-10-22T07:16:02.541Z,1007.73
2022-10-22T07:17:02.532Z,1007.76
2022-10-22T07:18:02.526Z,1007.74
2022-10-22T07:19:02.523Z,1007.73
2022-10-22T07:20:02.519Z,1007.73
2022-10-22T07:21:02.509Z,1007.73
2022-10-22T07:22:02.508Z,1007.70
2022-10-22T07:23:02.507Z,1007.73
2022-10-22T07:24:02.494Z,1007.74
2022-10-22T07:25:06.541Z,1007.77
2022-10-22T07:26:02.747Z,1007.76
2022-10-22T07:27:02.487Z,1007.82
2022-10-22T07:28:02.479Z,1007.87
2022-10-22T07:29:02.469Z,1007.87
2022-10-22T07:30:02.461Z,1007.87
2022-10-22T07:31:02.458Z,1007.90
2022-10-22T07:32:02.449Z,1007.93
2022-10-22T07:33:02.452Z,1007.95
2022-10-22T07:34:02.436Z,1007.97
2022-10-22T07:35:02.436Z,1007.98
2022-10-22T07:36:02.430Z,1008.07
2022-10-22T07:37:02.430Z,1008.07
2022-10-22T07:38:02.421Z,1008.06
2022-10-22T07:39:02.416Z,1008.10
2022-10-22T07:40:03.881Z,1008.12
2022-10-22T07:41:02.405Z,1008.10
2022-10-22T07:42:02.393Z,1008.11
2022-10-22T07:43:02.393Z,1008.13
2022-10-22T07:44:02.393Z,1008.14
2022-10-22T07:45:02.382Z,1008.14
2022-10-22T07:46:02.374Z,1008.13
2022-10-22T07:47:02.374Z,1008.18
2022-10-22T07:48:02.374Z,1008.20
2022-10-22T07:49:02.357Z,1008.17
2022-10-22T07:50:02.369Z,1008.20
2022-10-22T07:51:02.349Z,1008.20
2022-10-22T07:52:02.352Z,1008.22
2022-10-22T07:53:02.345Z,1008.17
2022-10-22T07:54:02.331Z,1008.22
2022-10-22T07:55:02.331Z,1008.21
2022-10-22T07:56:02.328Z,1008.24
2022-10-22T07:57:02.321Z,1008.21
2022-10-22T07:58:02.319Z,1008.25
2022-10-22T08:00:02.323Z,1008.28
2022-10-22T08:01:02.348Z,1008.28
2022-10-22T08:02:02.299Z,1008.27
2022-10-22T08:03:02.290Z,1008.27
2022-10-22T08:04:02.293Z,1008.27
2022-10-22T08:05:02.279Z,1008.32
2022-10-22T08:06:02.274Z,1008.31
2022-10-22T08:07:02.291Z,1008.31
2022-10-22T08:08:02.263Z,1008.30
2022-10-22T08:09:02.349Z,1008.29
2022-10-22T08:10:02.255Z,1008.26
2022-10-22T08:11:02.250Z,1008.24
2022-10-22T08:12:02.252Z,1008.25
2022-10-22T08:13:02.247Z,1008.26
2022-10-22T08:14:02.234Z,1008.29
2022-10-22T08:15:02.237Z,1008.31
2022-10-22T08:16:02.227Z,1008.30
2022-10-22T08:17:02.221Z,1008.37
2022-10-22T08:18:02.221Z,1008.38
2022-10-22T08:19:02.216Z,1008.39
2022-10-22T08:20:02.205Z,1008.40
2022-10-22T08:21:02.206Z,1008.39
2022-10-22T08:22:02.197Z,1008.38
2022-10-22T08:23:02.191Z,1008.41
2022-10-22T08:24:02.232Z,1008.43
2022-10-22T08:25:02.181Z,1008.42
2022-10-22T08:26:02.177Z,1008.42
2022-10-22T08:27:02.175Z,1008.40
2022-10-22T08:28:02.166Z,1008.42
2022-10-22T08:29:02.162Z,1008.44
2022-10-22T08:30:02.175Z,1008.45
2022-10-22T08:31:02.166Z,1008.43
2022-10-22T08:32:02.150Z,1008.41
2022-10-22T08:33:02.157Z,1008.45
2022-10-22T08:34:02.138Z,1008.48
2022-10-22T08:35:02.139Z,1008.51
2022-10-22T08:36:02.128Z,1008.55
2022-10-22T08:37:02.133Z,1008.57
2022-10-22T08:38:02.120Z,1008.59
2022-10-22T08:39:02.122Z,1008.61
2022-10-22T08:40:02.110Z,1008.59
2022-10-22T08:41:02.134Z,1008.67
2022-10-22T08:42:02.101Z,1008.63
2022-10-22T08:43:02.095Z,1008.65
2022-10-22T08:44:02.093Z,1008.66
2022-10-22T08:45:02.095Z,1008.62
2022-10-22T08:46:02.082Z,1008.66
2022-10-22T08:47:02.085Z,1008.66
2022-10-22T08:48:02.080Z,1008.64
2022-10-22T08:49:02.125Z,1008.63
2022-10-22T08:50:02.080Z,1008.66
2022-10-22T08:51:02.056Z,1008.66
2022-10-22T08:52:02.054Z,1008.68
2022-10-22T08:53:02.063Z,1008.67
2022-10-22T08:54:02.049Z,1008.66
2022-10-22T08:55:02.038Z,1008.66
2022-10-22T08:56:02.037Z,1008.69
2022-10-22T08:57:02.037Z,1008.70
2022-10-22T08:58:02.027Z,1008.71
2022-10-22T08:59:02.025Z,1008.74
2022-10-22T09:00:02.013Z,1008.77
2022-10-22T09:01:02.013Z,1008.81
2022-10-22T09:02:02.004Z,1008.85
2022-10-22T09:03:02.009Z,1008.85
2022-10-22T09:04:02.000Z,1008.88
2022-10-22T09:05:01.998Z,1008.86
2022-10-22T09:06:01.987Z,1008.85
2022-10-22T09:07:01.986Z,1008.84
2022-10-22T09:08:01.983Z,1008.82
2022-10-22T09:09:02.002Z,1008.81
2022-10-22T09:10:01.979Z,1008.80
2022-10-22T09:11:01.969Z,1008.81
2022-10-22T09:12:01.969Z,1008.81
2022-10-22T09:13:01.954Z,1008.79
2022-10-22T09:14:01.991Z,1008.82
2022-10-22T09:15:01.946Z,1008.83
2022-10-22T09:16:01.948Z,1008.83
2022-10-22T09:17:01.936Z,1008.80
2022-10-22T09:18:01.937Z,1008.82
2022-10-22T09:19:01.930Z,1008.81
2022-10-22T09:20:01.923Z,1008.80
2022-10-22T09:21:01.922Z,1008.83
2022-10-22T09:22:01.933Z,1008.83
2022-10-22T09:23:01.926Z,1008.83
2022-10-22T09:24:01.912Z,1008.86
2022-10-22T09:25:01.911Z,1008.89
2022-10-22T09:26:01.902Z,1008.92
2022-10-22T09:27:01.896Z,1008.91
2022-10-22T09:28:01.893Z,1008.94
2022-10-22T09:29:01.906Z,1008.93
2022-10-22T09:30:01.878Z,1008.96
2022-10-22T09:31:01.872Z,1008.93
2022-10-22T09:32:01.873Z,1008.94
2022-10-22T09:33:01.864Z,1008.96
2022-10-22T09:34:01.868Z,1008.99
2022-10-22T09:35:01.852Z,1008.97
2022-10-22T09:36:01.851Z,1009.02
2022-10-22T09:37:01.856Z,1009.01
2022-10-22T09:38:01.847Z,1009.01
2022-10-22T09:39:01.836Z,1009.01
2022-10-22T09:40:01.838Z,1008.99
2022-10-22T09:41:01.847Z,1009.02
2022-10-22T09:42:01.826Z,1008.99
2022-10-22T09:43:01.827Z,1009.01
2022-10-22T09:44:01.814Z,1009.01
2022-10-22T09:45:01.813Z,1009.04
2022-10-22T09:46:01.814Z,1009.04
2022-10-22T09:47:01.807Z,1009.02
2022-10-22T09:48:02.435Z,1009.04
2022-10-22T09:49:01.798Z,1009.06
2022-10-22T09:50:01.791Z,1009.01
2022-10-22T09:51:01.787Z,1009.06
2022-10-22T09:52:01.788Z,1009.08
2022-10-22T09:53:01.795Z,1009.11
2022-10-22T09:54:01.776Z,1009.15
2022-10-22T09:55:01.773Z,1009.13
2022-10-22T09:56:01.781Z,1009.15
2022-10-22T09:57:01.766Z,1009.12
2022-10-22T09:58:01.760Z,1009.13
2022-10-22T09:59:01.800Z,1009.18
2022-10-22T10:00:01.753Z,1009.18
2022-10-22T10:01:01.753Z,1009.21
2022-10-22T10:02:13.521Z,1009.16
2022-10-22T10:03:01.779Z,1009.19
2022-10-22T10:04:04.494Z,1009.14
2022-10-22T10:05:01.737Z,1009.16
2022-10-22T10:06:04.988Z,1009.17
2022-10-22T10:07:01.727Z,1009.17
2022-10-22T10:08:01.833Z,1009.22
2022-10-22T10:09:01.764Z,1009.22
2022-10-22T10:10:01.715Z,1009.18
2022-10-22T10:11:01.718Z,1009.22
2022-10-22T10:12:01.701Z,1009.20
2022-10-22T10:13:01.699Z,1009.20
2022-10-22T10:14:01.702Z,1009.20
2022-10-22T10:15:01.695Z,1009.20
2022-10-22T10:16:01.687Z,1009.21
2022-10-22T10:17:01.683Z,1009.21
2022-10-22T10:18:01.679Z,1009.21
2022-10-22T10:19:01.676Z,1009.21
2022-10-22T10:20:03.907Z,1009.23
2022-10-22T10:21:01.770Z,1009.23
2022-10-22T10:22:01.668Z,1009.21
2022-10-22T10:23:01.661Z,1009.21
2022-10-22T10:24:01.654Z,1009.20
2022-10-22T10:25:01.652Z,1009.24
2022-10-22T10:26:01.650Z,1009.21
2022-10-22T10:27:01.642Z,1009.24
2022-10-22T10:28:01.644Z,1009.23
2022-10-22T10:29:01.641Z,1009.25
2022-10-22T10:30:01.629Z,1009.21
2022-10-22T10:31:01.687Z,1009.22
2022-10-22T10:32:01.624Z,1009.22
2022-10-22T10:33:01.620Z,1009.21
2022-10-22T10:34:01.622Z,1009.18
2022-10-22T10:35:01.614Z,1009.11
2022-10-22T10:36:01.614Z,1009.13
2022-10-22T10:37:01.612Z,1009.13
2022-10-22T10:38:01.613Z,1009.15
2022-10-22T10:39:01.605Z,1009.17
2022-10-22T10:40:01.593Z,1009.13
2022-10-22T10:41:01.584Z,1009.16
2022-10-22T10:42:01.592Z,1009.14
2022-10-22T10:43:01.583Z,1009.11
2022-10-22T10:44:01.580Z,1009.10
2022-10-22T10:45:01.574Z,1009.09
2022-10-22T10:46:01.571Z,1009.11
2022-10-22T10:47:01.569Z,1009.10
2022-10-22T10:48:01.566Z,1009.17
2022-10-22T10:49:01.560Z,1009.16
2022-10-22T10:50:01.566Z,1009.16
2022-10-22T10:51:01.556Z,1009.20
2022-10-22T10:52:01.558Z,1009.19
2022-10-22T10:53:01.550Z,1009.18
2022-10-22T10:54:01.553Z,1009.21
2022-10-22T10:55:01.549Z,1009.17
2022-10-22T10:56:01.535Z,1009.14
2022-10-22T10:57:01.533Z,1009.16
2022-10-22T10:58:01.537Z,1009.16
2022-10-22T10:59:01.520Z,1009.19
2022-10-22T11:00:01.557Z,1009.21
2022-10-22T11:01:01.520Z,1009.19
2022-10-22T11:02:01.511Z,1009.21
2022-10-22T11:03:01.509Z,1009.20
2022-10-22T11:04:01.504Z,1009.21
2022-10-22T11:05:01.506Z,1009.17
2022-10-22T11:06:01.501Z,1009.21
2022-10-22T11:07:11.185Z,1009.21
2022-10-22T11:08:01.496Z,1009.22
2022-10-22T11:09:01.559Z,1009.22
2022-10-22T11:10:01.483Z,1009.19
2022-10-22T11:11:01.488Z,1009.20
2022-10-22T11:12:01.482Z,1009.21
2022-10-22T11:13:01.473Z,1009.22
2022-10-22T11:14:01.464Z,1009.24
2022-10-22T11:15:01.465Z,1009.24
2022-10-22T11:16:01.475Z,1009.27
2022-10-22T11:17:01.463Z,1009.26
2022-10-22T11:18:02.014Z,1009.25
2022-10-22T11:19:01.451Z,1009.28
2022-10-22T11:20:01.505Z,1009.24
2022-10-22T11:21:01.453Z,1009.23
2022-10-22T11:22:01.446Z,1009.25
2022-10-22T11:23:18.935Z,1009.20
2022-10-22T11:24:02.384Z,1009.17
2022-10-22T11:25:03.229Z,1009.18
2022-10-22T11:26:01.433Z,1009.18
2022-10-22T11:27:01.425Z,1009.18
2022-10-22T11:28:06.630Z,1009.18
2022-10-22T11:29:01.419Z,1009.14
2022-10-22T11:30:01.418Z,1009.17
2022-10-22T11:31:01.419Z,1009.17
2022-10-22T11:32:01.414Z,1009.21
2022-10-22T11:33:01.409Z,1009.21
2022-10-22T11:34:09.980Z,1009.20
2022-10-22T11:35:01.415Z,1009.22
2022-10-22T11:36:01.401Z,1009.21
2022-10-22T11:37:01.571Z,1009.19
2022-10-22T11:38:01.394Z,1009.24
2022-10-22T11:39:01.389Z,1009.23
2022-10-22T11:40:01.393Z,1009.23
2022-10-22T11:41:01.388Z,1009.22
2022-10-22T11:42:01.412Z,1009.21
2022-10-22T11:43:01.408Z,1009.18
2022-10-22T11:44:01.503Z,1009.18
2022-10-22T11:45:02.511Z,1009.17
2022-10-22T11:46:04.790Z,1009.17
2022-10-22T11:47:02.904Z,1009.21
2022-10-22T11:48:03.071Z,1009.19
2022-10-22T11:49:02.529Z,1009.15
2022-10-22T11:50:02.187Z,1009.18
2022-10-22T11:51:01.357Z,1009.20
2022-10-22T11:52:04.290Z,1009.22
2022-10-22T11:53:01.484Z,1009.20
2022-10-22T11:54:01.346Z,1009.18
2022-10-22T11:55:01.345Z,1009.16
2022-10-22T11:56:01.343Z,1009.23
2022-10-22T11:57:01.337Z,1009.19
2022-10-22T11:58:01.342Z,1009.22
2022-10-22T11:59:01.331Z,1009.20
2022-10-22T12:00:01.333Z,1009.17
2022-10-22T12:01:01.327Z,1009.17
2022-10-22T12:02:01.358Z,1009.20
2022-10-22T12:03:01.324Z,1009.19
2022-10-22T12:04:01.317Z,1009.21
2022-10-22T12:05:01.315Z,1009.21
2022-10-22T12:06:01.311Z,1009.19
2022-10-22T12:07:01.312Z,1009.22
2022-10-22T12:08:01.309Z,1009.20
2022-10-22T12:09:01.458Z,1009.22